sensor_id;sensor_type;location;lat;lon;timestamp;temperature;humidity
23597;DHT22;40226;50.874;4.394;2023-07-16T00:00:28;18.80;1.00
23597;DHT22;40226;50.874;4.394;2023-07-16T00:02:54;18.80;1.00
23597;DHT22;40226;50.874;4.394;2023-07-16T00:05:21;18.90;1.00
23597;DHT22;40226;50.874;4.394;2023-07-16T00:07:46;18.80;1.00
23597;DHT22;40226;50.874;4.394;2023-07-16T00:10:12;18.90;1.00
23597;DHT22;40226;50.874;4.394;2023-07-16T00:12:38;18.80;1.00
23597;DHT22;40226;50.874;4.394;2023-07-16T00:15:04;18.70;1.00
23597;DHT22;40226;50.874;4.394;2023-07-16T00:17:31;18.60;1.00
23597;DHT22;40226;50.874;4.394;2023-07-16T00:20:02;18.50;1.00
23597;DHT22;40226;50.874;4.394;2023-07-16T00:22:29;18.50;1.00
23597;DHT22;40226;50.874;4.394;2023-07-16T00:24:55;18.60;1.00
23597;DHT22;40226;50.874;4.394;2023-07-16T00:27:21;18.60;1.00
23597;DHT22;40226;50.874;4.394;2023-07-16T00:29:46;18.50;1.00
23597;DHT22;40226;50.874;4.394;2023-07-16T00:32:12;18.50;1.00
23597;DHT22;40226;50.874;4.394;2023-07-16T00:34:37;18.50;1.00
23597;DHT22;40226;50.874;4.394;2023-07-16T00:37:03;18.30;8.70
23597;DHT22;40226;50.874;4.394;2023-07-16T00:39:29;18.40;12.00
23597;DHT22;40226;50.874;4.394;2023-07-16T00:41:55;18.40;17.60
23597;DHT22;40226;50.874;4.394;2023-07-16T00:44:22;18.40;12.80
23597;DHT22;40226;50.874;4.394;2023-07-16T00:46:48;18.30;18.20
23597;DHT22;40226;50.874;4.394;2023-07-16T00:49:13;18.30;28.10
23597;DHT22;40226;50.874;4.394;2023-07-16T00:51:39;18.30;29.70
23597;DHT22;40226;50.874;4.394;2023-07-16T00:54:05;18.20;41.70
23597;DHT22;40226;50.874;4.394;2023-07-16T00:56:32;18.20;44.50
23597;DHT22;40226;50.874;4.394;2023-07-16T00:58:58;18.10;62.20
23597;DHT22;40226;50.874;4.394;2023-07-16T01:01:23;18.10;70.30
23597;DHT22;40226;50.874;4.394;2023-07-16T01:03:49;18.10;69.20
23597;DHT22;40226;50.874;4.394;2023-07-16T01:06:24;18.10;68.90
23597;DHT22;40226;50.874;4.394;2023-07-16T01:09:14;18.00;52.00
23597;DHT22;40226;50.874;4.394;2023-07-16T01:11:41;17.80;55.30
23597;DHT22;40226;50.874;4.394;2023-07-16T01:14:08;17.80;52.10
23597;DHT22;40226;50.874;4.394;2023-07-16T01:16:34;17.70;24.30
23597;DHT22;40226;50.874;4.394;2023-07-16T01:18:59;17.70;1.00
23597;DHT22;40226;50.874;4.394;2023-07-16T01:24:36;17.70;1.00
23597;DHT22;40226;50.874;4.394;2023-07-16T01:30:15;17.70;1.00
23597;DHT22;40226;50.874;4.394;2023-07-16T01:32:42;17.70;1.00
23597;DHT22;40226;50.874;4.394;2023-07-16T01:35:10;17.60;1.00
23597;DHT22;40226;50.874;4.394;2023-07-16T01:37:35;17.60;1.00
23597;DHT22;40226;50.874;4.394;2023-07-16T01:40:02;17.50;1.00
23597;DHT22;40226;50.874;4.394;2023-07-16T01:42:28;17.50;1.00
23597;DHT22;40226;50.874;4.394;2023-07-16T01:44:54;17.50;1.00
23597;DHT22;40226;50.874;4.394;2023-07-16T01:50:24;17.50;1.00
23597;DHT22;40226;50.874;4.394;2023-07-16T01:52:49;17.40;1.00
23597;DHT22;40226;50.874;4.394;2023-07-16T01:55:15;17.40;1.00
23597;DHT22;40226;50.874;4.394;2023-07-16T01:57:41;17.30;1.00
23597;DHT22;40226;50.874;4.394;2023-07-16T02:00:07;17.30;1.00
23597;DHT22;40226;50.874;4.394;2023-07-16T02:02:33;17.40;1.00
23597;DHT22;40226;50.874;4.394;2023-07-16T02:04:59;17.40;1.00
23597;DHT22;40226;50.874;4.394;2023-07-16T02:07:26;17.40;1.00
23597;DHT22;40226;50.874;4.394;2023-07-16T02:09:51;17.40;1.00
23597;DHT22;40226;50.874;4.394;2023-07-16T02:12:17;17.30;1.00
23597;DHT22;40226;50.874;4.394;2023-07-16T02:14:42;17.30;1.00
23597;DHT22;40226;50.874;4.394;2023-07-16T02:17:08;17.30;1.00
23597;DHT22;40226;50.874;4.394;2023-07-16T02:19:34;17.20;1.00
23597;DHT22;40226;50.874;4.394;2023-07-16T02:21:59;17.20;1.00
23597;DHT22;40226;50.874;4.394;2023-07-16T02:24:25;17.10;1.00
23597;DHT22;40226;50.874;4.394;2023-07-16T02:26:50;17.00;1.00
23597;DHT22;40226;50.874;4.394;2023-07-16T02:29:16;17.10;1.00
23597;DHT22;40226;50.874;4.394;2023-07-16T02:31:42;17.10;1.00
23597;DHT22;40226;50.874;4.394;2023-07-16T02:34:11;17.10;1.00
23597;DHT22;40226;50.874;4.394;2023-07-16T02:36:36;17.10;1.00
23597;DHT22;40226;50.874;4.394;2023-07-16T02:39:02;17.10;1.00
23597;DHT22;40226;50.874;4.394;2023-07-16T02:41:28;17.10;1.00
23597;DHT22;40226;50.874;4.394;2023-07-16T02:44:03;17.10;1.00
23597;DHT22;40226;50.874;4.394;2023-07-16T02:46:29;17.10;1.00
23597;DHT22;40226;50.874;4.394;2023-07-16T02:48:54;17.10;1.00
23597;DHT22;40226;50.874;4.394;2023-07-16T02:51:21;17.00;1.00
23597;DHT22;40226;50.874;4.394;2023-07-16T02:53:48;17.00;1.00
23597;DHT22;40226;50.874;4.394;2023-07-16T02:56:13;16.90;1.00
23597;DHT22;40226;50.874;4.394;2023-07-16T02:58:39;16.90;1.00
23597;DHT22;40226;50.874;4.394;2023-07-16T03:01:05;16.90;1.00
23597;DHT22;40226;50.874;4.394;2023-07-16T03:03:30;17.00;1.00
23597;DHT22;40226;50.874;4.394;2023-07-16T03:05:56;17.10;1.00
23597;DHT22;40226;50.874;4.394;2023-07-16T03:08:21;17.00;1.00
23597;DHT22;40226;50.874;4.394;2023-07-16T03:10:48;17.00;1.00
23597;DHT22;40226;50.874;4.394;2023-07-16T03:13:13;17.00;1.00
23597;DHT22;40226;50.874;4.394;2023-07-16T03:15:39;16.90;1.00
23597;DHT22;40226;50.874;4.394;2023-07-16T03:18:04;17.00;1.00
23597;DHT22;40226;50.874;4.394;2023-07-16T03:20:30;16.90;1.00
23597;DHT22;40226;50.874;4.394;2023-07-16T03:22:56;16.90;1.00
23597;DHT22;40226;50.874;4.394;2023-07-16T03:25:21;16.90;1.00
23597;DHT22;40226;50.874;4.394;2023-07-16T03:27:47;16.80;1.00
23597;DHT22;40226;50.874;4.394;2023-07-16T03:30:13;16.80;1.00
23597;DHT22;40226;50.874;4.394;2023-07-16T03:32:38;16.80;1.00
23597;DHT22;40226;50.874;4.394;2023-07-16T03:35:04;16.80;1.00
23597;DHT22;40226;50.874;4.394;2023-07-16T03:37:30;16.80;1.00
23597;DHT22;40226;50.874;4.394;2023-07-16T03:39:55;16.80;1.00
23597;DHT22;40226;50.874;4.394;2023-07-16T03:42:21;16.70;1.00
23597;DHT22;40226;50.874;4.394;2023-07-16T03:44:47;16.70;1.00
23597;DHT22;40226;50.874;4.394;2023-07-16T03:47:16;16.70;1.00
23597;DHT22;40226;50.874;4.394;2023-07-16T03:49:41;16.70;1.00
23597;DHT22;40226;50.874;4.394;2023-07-16T03:52:07;16.70;1.00
23597;DHT22;40226;50.874;4.394;2023-07-16T03:54:33;16.70;1.00
23597;DHT22;40226;50.874;4.394;2023-07-16T03:56:58;16.60;1.00
23597;DHT22;40226;50.874;4.394;2023-07-16T03:59:24;16.70;1.00
23597;DHT22;40226;50.874;4.394;2023-07-16T04:01:50;16.70;1.00
23597;DHT22;40226;50.874;4.394;2023-07-16T04:04:15;16.70;1.00
23597;DHT22;40226;50.874;4.394;2023-07-16T04:06:41;16.70;1.00
23597;DHT22;40226;50.874;4.394;2023-07-16T04:09:06;16.50;1.00
23597;DHT22;40226;50.874;4.394;2023-07-16T04:11:32;16.60;1.00
23597;DHT22;40226;50.874;4.394;2023-07-16T04:13:58;16.60;1.00
23597;DHT22;40226;50.874;4.394;2023-07-16T04:16:23;16.50;1.00
23597;DHT22;40226;50.874;4.394;2023-07-16T04:18:49;16.50;1.00
23597;DHT22;40226;50.874;4.394;2023-07-16T04:21:14;16.50;1.00
23597;DHT22;40226;50.874;4.394;2023-07-16T04:23:43;16.40;1.00
23597;DHT22;40226;50.874;4.394;2023-07-16T04:26:08;16.50;1.00
23597;DHT22;40226;50.874;4.394;2023-07-16T04:28:34;16.50;1.00
23597;DHT22;40226;50.874;4.394;2023-07-16T04:31:00;16.50;1.00
23597;DHT22;40226;50.874;4.394;2023-07-16T04:33:25;16.50;1.00
23597;DHT22;40226;50.874;4.394;2023-07-16T04:35:51;16.50;1.00
23597;DHT22;40226;50.874;4.394;2023-07-16T04:38:16;16.50;1.00
23597;DHT22;40226;50.874;4.394;2023-07-16T04:40:43;16.50;1.00
23597;DHT22;40226;50.874;4.394;2023-07-16T04:43:09;16.50;1.00
23597;DHT22;40226;50.874;4.394;2023-07-16T04:45:34;16.50;1.00
23597;DHT22;40226;50.874;4.394;2023-07-16T04:48:00;16.50;1.00
23597;DHT22;40226;50.874;4.394;2023-07-16T04:50:25;16.40;1.00
23597;DHT22;40226;50.874;4.394;2023-07-16T04:52:51;16.40;1.00
23597;DHT22;40226;50.874;4.394;2023-07-16T04:55:16;16.40;1.00
23597;DHT22;40226;50.874;4.394;2023-07-16T04:57:42;16.50;1.00
23597;DHT22;40226;50.874;4.394;2023-07-16T05:00:08;16.40;1.00
23597;DHT22;40226;50.874;4.394;2023-07-16T05:02:34;16.40;1.00
23597;DHT22;40226;50.874;4.394;2023-07-16T05:04:59;16.40;1.00
23597;DHT22;40226;50.874;4.394;2023-07-16T05:07:25;16.40;1.00
23597;DHT22;40226;50.874;4.394;2023-07-16T05:09:50;16.40;1.00
23597;DHT22;40226;50.874;4.394;2023-07-16T05:12:16;16.40;1.00
23597;DHT22;40226;50.874;4.394;2023-07-16T05:14:47;16.40;1.00
23597;DHT22;40226;50.874;4.394;2023-07-16T05:17:14;16.50;1.00
23597;DHT22;40226;50.874;4.394;2023-07-16T05:19:39;16.50;1.00
23597;DHT22;40226;50.874;4.394;2023-07-16T05:22:06;16.50;1.00
23597;DHT22;40226;50.874;4.394;2023-07-16T05:24:32;16.60;1.00
23597;DHT22;40226;50.874;4.394;2023-07-16T05:26:57;16.60;1.00
23597;DHT22;40226;50.874;4.394;2023-07-16T05:29:24;16.60;1.00
23597;DHT22;40226;50.874;4.394;2023-07-16T05:31:50;16.50;1.00
23597;DHT22;40226;50.874;4.394;2023-07-16T05:34:15;16.60;1.00
23597;DHT22;40226;50.874;4.394;2023-07-16T05:36:42;16.70;1.00
23597;DHT22;40226;50.874;4.394;2023-07-16T05:39:09;16.70;1.00
23597;DHT22;40226;50.874;4.394;2023-07-16T05:41:38;16.70;1.00
23597;DHT22;40226;50.874;4.394;2023-07-16T05:44:04;16.80;1.00
23597;DHT22;40226;50.874;4.394;2023-07-16T05:46:30;16.80;1.00
23597;DHT22;40226;50.874;4.394;2023-07-16T05:48:55;16.80;1.00
23597;DHT22;40226;50.874;4.394;2023-07-16T05:51:21;16.90;1.00
23597;DHT22;40226;50.874;4.394;2023-07-16T05:53:47;16.80;1.00
23597;DHT22;40226;50.874;4.394;2023-07-16T05:56:12;16.90;1.00
23597;DHT22;40226;50.874;4.394;2023-07-16T05:58:40;16.90;1.00
23597;DHT22;40226;50.874;4.394;2023-07-16T06:01:05;16.90;1.00
23597;DHT22;40226;50.874;4.394;2023-07-16T06:03:31;17.00;1.00
23597;DHT22;40226;50.874;4.394;2023-07-16T06:05:58;17.10;1.00
23597;DHT22;40226;50.874;4.394;2023-07-16T06:08:23;17.10;1.00
23597;DHT22;40226;50.874;4.394;2023-07-16T06:10:50;17.20;1.00
23597;DHT22;40226;50.874;4.394;2023-07-16T06:13:16;17.20;1.00
23597;DHT22;40226;50.874;4.394;2023-07-16T06:15:41;17.20;1.00
23597;DHT22;40226;50.874;4.394;2023-07-16T06:18:07;17.20;1.00
23597;DHT22;40226;50.874;4.394;2023-07-16T06:20:33;17.20;1.00
23597;DHT22;40226;50.874;4.394;2023-07-16T06:22:58;17.20;1.00
23597;DHT22;40226;50.874;4.394;2023-07-16T06:25:24;17.20;1.00
23597;DHT22;40226;50.874;4.394;2023-07-16T06:27:49;17.30;1.00
23597;DHT22;40226;50.874;4.394;2023-07-16T06:30:15;17.20;1.00
23597;DHT22;40226;50.874;4.394;2023-07-16T06:32:41;17.20;1.00
23597;DHT22;40226;50.874;4.394;2023-07-16T06:35:07;17.20;1.00
23597;DHT22;40226;50.874;4.394;2023-07-16T06:37:33;17.20;1.00
23597;DHT22;40226;50.874;4.394;2023-07-16T06:39:59;17.30;1.00
23597;DHT22;40226;50.874;4.394;2023-07-16T06:42:24;17.40;1.00
23597;DHT22;40226;50.874;4.394;2023-07-16T06:44:50;17.60;1.00
23597;DHT22;40226;50.874;4.394;2023-07-16T06:47:18;17.60;1.00
23597;DHT22;40226;50.874;4.394;2023-07-16T06:49:44;17.60;1.00
23597;DHT22;40226;50.874;4.394;2023-07-16T06:52:21;17.60;1.00
23597;DHT22;40226;50.874;4.394;2023-07-16T06:54:47;17.70;1.00
23597;DHT22;40226;50.874;4.394;2023-07-16T06:57:14;17.80;1.00
23597;DHT22;40226;50.874;4.394;2023-07-16T06:59:40;17.70;1.00
23597;DHT22;40226;50.874;4.394;2023-07-16T07:02:06;17.70;1.00
23597;DHT22;40226;50.874;4.394;2023-07-16T07:04:31;17.70;1.00
23597;DHT22;40226;50.874;4.394;2023-07-16T07:06:57;17.80;1.00
23597;DHT22;40226;50.874;4.394;2023-07-16T07:09:23;17.90;1.00
23597;DHT22;40226;50.874;4.394;2023-07-16T07:11:48;17.90;1.00
23597;DHT22;40226;50.874;4.394;2023-07-16T07:14:14;17.90;1.00
23597;DHT22;40226;50.874;4.394;2023-07-16T07:16:39;17.90;1.00
23597;DHT22;40226;50.874;4.394;2023-07-16T07:19:05;18.00;1.00
23597;DHT22;40226;50.874;4.394;2023-07-16T07:21:31;18.20;1.00
23597;DHT22;40226;50.874;4.394;2023-07-16T07:23:58;18.40;1.00
23597;DHT22;40226;50.874;4.394;2023-07-16T07:26:24;18.40;1.00
23597;DHT22;40226;50.874;4.394;2023-07-16T07:28:56;18.30;1.00
23597;DHT22;40226;50.874;4.394;2023-07-16T07:31:22;18.30;1.00
23597;DHT22;40226;50.874;4.394;2023-07-16T07:33:48;18.30;1.00
23597;DHT22;40226;50.874;4.394;2023-07-16T07:36:13;18.40;1.00
23597;DHT22;40226;50.874;4.394;2023-07-16T07:38:39;18.40;1.00
23597;DHT22;40226;50.874;4.394;2023-07-16T07:41:05;18.60;1.00
23597;DHT22;40226;50.874;4.394;2023-07-16T07:43:31;18.70;1.00
23597;DHT22;40226;50.874;4.394;2023-07-16T07:45:57;18.60;1.00
23597;DHT22;40226;50.874;4.394;2023-07-16T07:48:22;18.70;1.00
23597;DHT22;40226;50.874;4.394;2023-07-16T07:50:48;18.60;1.00
23597;DHT22;40226;50.874;4.394;2023-07-16T07:53:16;18.50;1.00
23597;DHT22;40226;50.874;4.394;2023-07-16T07:55:43;18.40;1.00
23597;DHT22;40226;50.874;4.394;2023-07-16T07:58:09;18.50;1.00
23597;DHT22;40226;50.874;4.394;2023-07-16T08:00:35;18.90;1.00
23597;DHT22;40226;50.874;4.394;2023-07-16T08:03:00;19.00;1.00
23597;DHT22;40226;50.874;4.394;2023-07-16T08:05:27;19.20;1.00
23597;DHT22;40226;50.874;4.394;2023-07-16T08:07:52;19.30;1.00
23597;DHT22;40226;50.874;4.394;2023-07-16T08:10:19;19.40;1.00
23597;DHT22;40226;50.874;4.394;2023-07-16T08:12:44;19.30;1.00
23597;DHT22;40226;50.874;4.394;2023-07-16T08:15:11;19.30;1.00
23597;DHT22;40226;50.874;4.394;2023-07-16T08:17:44;19.40;1.00
23597;DHT22;40226;50.874;4.394;2023-07-16T08:20:12;19.50;1.00
23597;DHT22;40226;50.874;4.394;2023-07-16T08:22:38;19.50;1.00
23597;DHT22;40226;50.874;4.394;2023-07-16T08:25:04;19.50;1.00
23597;DHT22;40226;50.874;4.394;2023-07-16T08:27:30;19.60;1.00
23597;DHT22;40226;50.874;4.394;2023-07-16T08:29:56;19.70;1.00
23597;DHT22;40226;50.874;4.394;2023-07-16T08:32:22;19.70;1.00
23597;DHT22;40226;50.874;4.394;2023-07-16T08:34:49;19.50;1.00
23597;DHT22;40226;50.874;4.394;2023-07-16T08:37:14;19.50;1.00
23597;DHT22;40226;50.874;4.394;2023-07-16T08:39:40;19.90;1.00
23597;DHT22;40226;50.874;4.394;2023-07-16T08:42:09;19.90;1.00
23597;DHT22;40226;50.874;4.394;2023-07-16T08:44:38;19.90;1.00
23597;DHT22;40226;50.874;4.394;2023-07-16T08:47:05;19.90;1.00
23597;DHT22;40226;50.874;4.394;2023-07-16T08:49:33;19.90;1.00
23597;DHT22;40226;50.874;4.394;2023-07-16T08:52:01;19.80;1.00
23597;DHT22;40226;50.874;4.394;2023-07-16T08:54:27;19.80;1.00
23597;DHT22;40226;50.874;4.394;2023-07-16T08:56:53;20.20;1.00
23597;DHT22;40226;50.874;4.394;2023-07-16T08:59:19;20.30;99.90
23597;DHT22;40226;50.874;4.394;2023-07-16T09:01:48;20.00;99.90
23597;DHT22;40226;50.874;4.394;2023-07-16T09:04:15;20.00;1.00
23597;DHT22;40226;50.874;4.394;2023-07-16T09:06:41;19.90;1.00
23597;DHT22;40226;50.874;4.394;2023-07-16T09:09:06;20.10;1.00
23597;DHT22;40226;50.874;4.394;2023-07-16T09:11:33;20.10;99.90
23597;DHT22;40226;50.874;4.394;2023-07-16T09:14:01;20.50;99.90
23597;DHT22;40226;50.874;4.394;2023-07-16T09:16:32;20.70;99.90
23597;DHT22;40226;50.874;4.394;2023-07-16T09:19:14;21.00;99.90
23597;DHT22;40226;50.874;4.394;2023-07-16T09:21:42;21.00;99.90
23597;DHT22;40226;50.874;4.394;2023-07-16T09:24:08;21.20;99.90
23597;DHT22;40226;50.874;4.394;2023-07-16T09:26:37;21.10;99.90
23597;DHT22;40226;50.874;4.394;2023-07-16T09:29:06;20.60;99.90
23597;DHT22;40226;50.874;4.394;2023-07-16T09:31:33;20.50;99.90
23597;DHT22;40226;50.874;4.394;2023-07-16T09:33:58;20.60;99.90
23597;DHT22;40226;50.874;4.394;2023-07-16T09:36:25;20.80;99.90
23597;DHT22;40226;50.874;4.394;2023-07-16T09:38:54;20.90;99.90
23597;DHT22;40226;50.874;4.394;2023-07-16T09:41:21;20.80;99.90
23597;DHT22;40226;50.874;4.394;2023-07-16T09:43:47;20.50;99.90
23597;DHT22;40226;50.874;4.394;2023-07-16T09:46:13;20.30;99.90
23597;DHT22;40226;50.874;4.394;2023-07-16T09:48:38;20.30;99.90
23597;DHT22;40226;50.874;4.394;2023-07-16T09:51:06;20.40;99.90
23597;DHT22;40226;50.874;4.394;2023-07-16T09:53:33;20.60;99.90
23597;DHT22;40226;50.874;4.394;2023-07-16T09:56:03;20.80;99.90
23597;DHT22;40226;50.874;4.394;2023-07-16T09:58:30;20.50;99.90
23597;DHT22;40226;50.874;4.394;2023-07-16T10:00:57;20.30;99.90
23597;DHT22;40226;50.874;4.394;2023-07-16T10:03:23;20.30;99.90
23597;DHT22;40226;50.874;4.394;2023-07-16T10:05:48;20.20;99.90
23597;DHT22;40226;50.874;4.394;2023-07-16T10:08:18;20.30;99.90
23597;DHT22;40226;50.874;4.394;2023-07-16T10:10:56;20.30;99.90
23597;DHT22;40226;50.874;4.394;2023-07-16T10:13:24;20.20;99.90
23597;DHT22;40226;50.874;4.394;2023-07-16T10:15:57;20.10;99.90
23597;DHT22;40226;50.874;4.394;2023-07-16T10:18:27;20.10;99.90
23597;DHT22;40226;50.874;4.394;2023-07-16T10:20:53;20.00;99.90
23597;DHT22;40226;50.874;4.394;2023-07-16T10:23:19;20.10;99.90
23597;DHT22;40226;50.874;4.394;2023-07-16T10:26:01;20.20;99.90
23597;DHT22;40226;50.874;4.394;2023-07-16T10:28:31;20.30;99.90
23597;DHT22;40226;50.874;4.394;2023-07-16T10:30:57;20.10;99.90
23597;DHT22;40226;50.874;4.394;2023-07-16T10:33:23;20.10;99.90
23597;DHT22;40226;50.874;4.394;2023-07-16T10:35:48;20.50;99.90
23597;DHT22;40226;50.874;4.394;2023-07-16T10:38:15;20.80;99.90
23597;DHT22;40226;50.874;4.394;2023-07-16T10:40:45;20.70;99.90
23597;DHT22;40226;50.874;4.394;2023-07-16T10:43:12;20.50;99.90
23597;DHT22;40226;50.874;4.394;2023-07-16T10:45:42;20.20;1.00
23597;DHT22;40226;50.874;4.394;2023-07-16T10:48:12;20.20;1.00
23597;DHT22;40226;50.874;4.394;2023-07-16T10:50:38;20.10;1.00
23597;DHT22;40226;50.874;4.394;2023-07-16T10:53:04;20.50;1.00
23597;DHT22;40226;50.874;4.394;2023-07-16T10:55:30;20.80;99.90
23597;DHT22;40226;50.874;4.394;2023-07-16T10:57:58;21.20;99.90
23597;DHT22;40226;50.874;4.394;2023-07-16T11:00:23;21.30;99.90
23597;DHT22;40226;50.874;4.394;2023-07-16T11:02:52;21.00;99.90
23597;DHT22;40226;50.874;4.394;2023-07-16T11:05:19;20.80;99.90
23597;DHT22;40226;50.874;4.394;2023-07-16T11:07:49;20.80;99.90
23597;DHT22;40226;50.874;4.394;2023-07-16T11:10:18;20.90;99.90
23597;DHT22;40226;50.874;4.394;2023-07-16T11:12:44;20.80;99.90
23597;DHT22;40226;50.874;4.394;2023-07-16T11:15:10;20.90;99.90
23597;DHT22;40226;50.874;4.394;2023-07-16T11:17:39;20.90;99.90
23597;DHT22;40226;50.874;4.394;2023-07-16T11:20:07;20.50;1.00
23597;DHT22;40226;50.874;4.394;2023-07-16T11:22:37;20.10;1.00
23597;DHT22;40226;50.874;4.394;2023-07-16T11:25:03;20.00;1.00
23597;DHT22;40226;50.874;4.394;2023-07-16T11:27:31;19.80;1.00
23597;DHT22;40226;50.874;4.394;2023-07-16T11:29:58;19.80;1.00
23597;DHT22;40226;50.874;4.394;2023-07-16T11:32:31;20.20;1.00
23597;DHT22;40226;50.874;4.394;2023-07-16T11:34:58;20.60;1.00
23597;DHT22;40226;50.874;4.394;2023-07-16T11:37:25;20.70;1.00
23597;DHT22;40226;50.874;4.394;2023-07-16T11:39:51;20.90;1.00
23597;DHT22;40226;50.874;4.394;2023-07-16T11:42:27;21.40;99.90
23597;DHT22;40226;50.874;4.394;2023-07-16T11:44:53;21.60;99.90
23597;DHT22;40226;50.874;4.394;2023-07-16T11:47:20;21.70;99.90
23597;DHT22;40226;50.874;4.394;2023-07-16T11:49:45;22.00;99.90
23597;DHT22;40226;50.874;4.394;2023-07-16T11:52:11;22.30;99.90
23597;DHT22;40226;50.874;4.394;2023-07-16T11:54:36;22.60;99.90
23597;DHT22;40226;50.874;4.394;2023-07-16T11:57:02;22.90;1.00
23597;DHT22;40226;50.874;4.394;2023-07-16T11:59:29;22.60;1.00
23597;DHT22;40226;50.874;4.394;2023-07-16T12:01:54;23.30;1.00
23597;DHT22;40226;50.874;4.394;2023-07-16T12:04:20;23.90;1.00
23597;DHT22;40226;50.874;4.394;2023-07-16T12:06:46;24.70;99.90
23597;DHT22;40226;50.874;4.394;2023-07-16T12:09:12;25.50;99.90
23597;DHT22;40226;50.874;4.394;2023-07-16T12:11:38;25.90;99.90
23597;DHT22;40226;50.874;4.394;2023-07-16T12:14:05;26.20;1.00
23597;DHT22;40226;50.874;4.394;2023-07-16T12:16:31;26.30;1.00
23597;DHT22;40226;50.874;4.394;2023-07-16T12:18:56;25.20;99.90
23597;DHT22;40226;50.874;4.394;2023-07-16T12:21:22;24.40;48.40
23597;DHT22;40226;50.874;4.394;2023-07-16T12:23:48;24.10;1.00
23597;DHT22;40226;50.874;4.394;2023-07-16T12:26:14;24.40;1.00
23597;DHT22;40226;50.874;4.394;2023-07-16T12:28:40;24.20;99.90
23597;DHT22;40226;50.874;4.394;2023-07-16T12:31:05;23.90;99.90
23597;DHT22;40226;50.874;4.394;2023-07-16T12:33:31;23.50;1.00
23597;DHT22;40226;50.874;4.394;2023-07-16T12:35:58;22.70;1.00
23597;DHT22;40226;50.874;4.394;2023-07-16T12:38:24;22.40;99.90
23597;DHT22;40226;50.874;4.394;2023-07-16T12:40:49;22.60;99.90
23597;DHT22;40226;50.874;4.394;2023-07-16T12:43:16;22.60;99.90
23597;DHT22;40226;50.874;4.394;2023-07-16T12:45:41;22.70;99.90
23597;DHT22;40226;50.874;4.394;2023-07-16T12:48:07;23.10;99.90
23597;DHT22;40226;50.874;4.394;2023-07-16T12:50:33;23.90;1.00
23597;DHT22;40226;50.874;4.394;2023-07-16T12:52:58;24.90;23.90
23597;DHT22;40226;50.874;4.394;2023-07-16T12:55:25;25.00;99.90
23597;DHT22;40226;50.874;4.394;2023-07-16T12:57:51;25.10;99.90
23597;DHT22;40226;50.874;4.394;2023-07-16T13:00:17;24.90;99.90
23597;DHT22;40226;50.874;4.394;2023-07-16T13:02:42;24.70;99.90
23597;DHT22;40226;50.874;4.394;2023-07-16T13:05:08;25.00;99.90
23597;DHT22;40226;50.874;4.394;2023-07-16T13:07:33;25.00;1.00
23597;DHT22;40226;50.874;4.394;2023-07-16T13:09:59;24.50;1.00
23597;DHT22;40226;50.874;4.394;2023-07-16T13:12:25;23.80;99.90
23597;DHT22;40226;50.874;4.394;2023-07-16T13:14:51;23.90;1.00
23597;DHT22;40226;50.874;4.394;2023-07-16T13:17:16;24.80;2.20
23597;DHT22;40226;50.874;4.394;2023-07-16T13:19:44;24.80;1.00
23597;DHT22;40226;50.874;4.394;2023-07-16T13:22:10;24.30;99.90
23597;DHT22;40226;50.874;4.394;2023-07-16T13:24:35;24.10;99.90
23597;DHT22;40226;50.874;4.394;2023-07-16T13:27:01;23.90;1.00
23597;DHT22;40226;50.874;4.394;2023-07-16T13:29:26;23.50;1.00
23597;DHT22;40226;50.874;4.394;2023-07-16T13:31:52;23.20;99.90
23597;DHT22;40226;50.874;4.394;2023-07-16T13:34:17;23.20;1.00
23597;DHT22;40226;50.874;4.394;2023-07-16T13:36:43;23.20;1.00
23597;DHT22;40226;50.874;4.394;2023-07-16T13:39:09;23.20;99.90
23597;DHT22;40226;50.874;4.394;2023-07-16T13:41:35;23.20;99.90
23597;DHT22;40226;50.874;4.394;2023-07-16T13:44:01;23.10;1.00
23597;DHT22;40226;50.874;4.394;2023-07-16T13:46:27;23.30;1.00
23597;DHT22;40226;50.874;4.394;2023-07-16T13:48:52;23.40;1.00
23597;DHT22;40226;50.874;4.394;2023-07-16T13:51:19;23.40;83.60
23597;DHT22;40226;50.874;4.394;2023-07-16T13:53:44;23.40;1.00
23597;DHT22;40226;50.874;4.394;2023-07-16T13:56:10;23.40;1.00
23597;DHT22;40226;50.874;4.394;2023-07-16T13:58:36;23.10;1.00
23597;DHT22;40226;50.874;4.394;2023-07-16T14:01:01;22.90;99.90
23597;DHT22;40226;50.874;4.394;2023-07-16T14:03:27;23.00;99.90
23597;DHT22;40226;50.874;4.394;2023-07-16T14:05:52;23.00;99.90
23597;DHT22;40226;50.874;4.394;2023-07-16T14:08:19;23.00;99.90
23597;DHT22;40226;50.874;4.394;2023-07-16T14:10:44;23.20;99.90
23597;DHT22;40226;50.874;4.394;2023-07-16T14:13:11;24.10;1.00
23597;DHT22;40226;50.874;4.394;2023-07-16T14:15:38;24.60;91.40
23597;DHT22;40226;50.874;4.394;2023-07-16T14:18:03;24.90;99.90
23597;DHT22;40226;50.874;4.394;2023-07-16T14:20:29;25.40;99.90
23597;DHT22;40226;50.874;4.394;2023-07-16T14:22:55;25.40;1.00
23597;DHT22;40226;50.874;4.394;2023-07-16T14:25:20;25.50;1.00
23597;DHT22;40226;50.874;4.394;2023-07-16T14:27:46;25.80;99.90
23597;DHT22;40226;50.874;4.394;2023-07-16T14:30:13;25.50;99.90
23597;DHT22;40226;50.874;4.394;2023-07-16T14:32:38;25.00;99.90
23597;DHT22;40226;50.874;4.394;2023-07-16T14:35:05;24.70;1.00
23597;DHT22;40226;50.874;4.394;2023-07-16T14:37:30;25.00;1.00
23597;DHT22;40226;50.874;4.394;2023-07-16T14:39:56;25.00;1.00
23597;DHT22;40226;50.874;4.394;2023-07-16T14:42:22;25.00;99.90
23597;DHT22;40226;50.874;4.394;2023-07-16T14:44:47;25.00;99.90
23597;DHT22;40226;50.874;4.394;2023-07-16T14:47:13;26.10;99.90
23597;DHT22;40226;50.874;4.394;2023-07-16T14:49:39;26.40;99.90
23597;DHT22;40226;50.874;4.394;2023-07-16T14:52:04;26.20;99.90
23597;DHT22;40226;50.874;4.394;2023-07-16T14:54:30;26.50;99.90
23597;DHT22;40226;50.874;4.394;2023-07-16T14:56:56;26.60;1.00
23597;DHT22;40226;50.874;4.394;2023-07-16T14:59:21;27.00;1.00
23597;DHT22;40226;50.874;4.394;2023-07-16T15:01:47;26.80;1.00
23597;DHT22;40226;50.874;4.394;2023-07-16T15:04:13;27.50;1.00
23597;DHT22;40226;50.874;4.394;2023-07-16T15:06:39;27.20;99.90
23597;DHT22;40226;50.874;4.394;2023-07-16T15:09:05;26.90;99.90
23597;DHT22;40226;50.874;4.394;2023-07-16T15:11:30;26.40;99.90
23597;DHT22;40226;50.874;4.394;2023-07-16T15:13:59;25.20;99.90
23597;DHT22;40226;50.874;4.394;2023-07-16T15:16:25;24.50;1.00
23597;DHT22;40226;50.874;4.394;2023-07-16T15:18:50;24.10;1.00
23597;DHT22;40226;50.874;4.394;2023-07-16T15:21:16;24.00;1.00
23597;DHT22;40226;50.874;4.394;2023-07-16T15:23:43;24.30;1.00
23597;DHT22;40226;50.874;4.394;2023-07-16T15:26:08;24.50;1.00
23597;DHT22;40226;50.874;4.394;2023-07-16T15:28:37;25.50;1.00
23597;DHT22;40226;50.874;4.394;2023-07-16T15:31:03;26.40;1.00
23597;DHT22;40226;50.874;4.394;2023-07-16T15:33:29;27.60;1.00
23597;DHT22;40226;50.874;4.394;2023-07-16T15:35:56;27.80;99.90
23597;DHT22;40226;50.874;4.394;2023-07-16T15:38:22;27.70;99.90
23597;DHT22;40226;50.874;4.394;2023-07-16T15:40:48;27.40;99.90
23597;DHT22;40226;50.874;4.394;2023-07-16T15:43:13;27.40;99.90